createdAt,value
2018-11-12T00:00:49.353Z,776.00
2018-11-12T00:03:17.650Z,775.67
2018-11-12T00:05:45.942Z,775.45
2018-11-12T00:08:14.238Z,782.50
2018-11-12T00:10:42.498Z,782.55
2018-11-12T00:13:10.818Z,770.98
2018-11-12T00:15:39.106Z,764.48
2018-11-12T00:18:07.402Z,773.30
2018-11-12T00:20:35.716Z,767.25
2018-11-12T00:23:04.074Z,772.63
2018-11-12T00:25:32.367Z,772.08
2018-11-12T00:28:00.698Z,777.75
2018-11-12T00:30:28.979Z,777.02
2018-11-12T00:32:57.290Z,780.00
2018-11-12T00:35:25.561Z,779.72
2018-11-12T00:37:53.871Z,781.30
2018-11-12T00:40:22.138Z,787.92
2018-11-12T00:42:50.447Z,790.52
2018-11-12T00:45:18.754Z,787.45
2018-11-12T00:47:47.031Z,780.15
2018-11-12T00:50:15.890Z,783.70
2018-11-12T00:52:44.151Z,788.98
2018-11-12T00:55:13.706Z,776.93
2018-11-12T00:57:42.371Z,784.05
2018-11-12T01:00:17.659Z,784.15
2018-11-12T01:02:47.066Z,787.02
2018-11-12T01:05:16.086Z,782.23
2018-11-12T01:07:44.538Z,783.17
2018-11-12T01:10:13.988Z,785.65
2018-11-12T01:12:42.869Z,779.58
2018-11-12T01:15:14.138Z,787.92
2018-11-12T01:17:42.626Z,787.80
2018-11-12T01:20:12.379Z,784.35
2018-11-12T01:22:40.675Z,793.77
2018-11-12T01:25:10.158Z,802.90
2018-11-12T01:27:39.058Z,801.28
2018-11-12T01:30:09.614Z,793.60
2018-11-12T01:32:38.023Z,798.50
2018-11-12T01:35:07.242Z,801.30
2018-11-12T01:37:35.538Z,809.77
2018-11-12T01:40:03.889Z,814.40
2018-11-12T01:42:32.379Z,807.15
2018-11-12T01:45:00.679Z,801.17
2018-11-12T01:47:28.966Z,793.50
2018-11-12T01:49:57.304Z,796.98
2018-11-12T01:52:25.606Z,791.20
2018-11-12T01:54:53.907Z,791.60
2018-11-12T01:57:22.174Z,792.33
2018-11-12T01:59:50.456Z,794.00
2018-11-12T02:02:18.771Z,795.60
2018-11-12T02:04:47.131Z,796.08
2018-11-12T02:07:15.355Z,799.95
2018-11-12T02:09:43.666Z,800.40
2018-11-12T02:12:11.963Z,805.95
2018-11-12T02:14:40.304Z,801.45
2018-11-12T02:17:08.544Z,807.20
2018-11-12T02:19:36.829Z,802.97
2018-11-12T02:22:05.598Z,806.78
2018-11-12T02:24:33.886Z,799.27
2018-11-12T02:27:02.178Z,800.05
2018-11-12T02:29:30.527Z,793.87
2018-11-12T02:31:58.788Z,791.98
2018-11-12T02:34:27.094Z,794.37
2018-11-12T02:36:55.388Z,788.03
2018-11-12T02:39:23.699Z,794.45
2018-11-12T02:41:51.970Z,791.13
2018-11-12T02:44:20.274Z,793.77
2018-11-12T02:46:48.564Z,793.05
2018-11-12T02:49:16.962Z,789.70
2018-11-12T02:51:45.256Z,791.55
2018-11-12T02:54:13.558Z,783.92
2018-11-12T02:56:41.936Z,786.33
2018-11-12T02:59:10.851Z,792.17
2018-11-12T03:01:39.171Z,786.70
2018-11-12T03:04:07.466Z,793.13
2018-11-12T03:06:35.733Z,801.75
2018-11-12T03:09:06.814Z,788.33
2018-11-12T03:11:35.086Z,783.90
2018-11-12T03:14:03.407Z,789.30
2018-11-12T03:16:31.690Z,786.80
2018-11-12T03:18:59.969Z,785.40
2018-11-12T03:21:28.275Z,783.65
2018-11-12T03:23:56.562Z,782.85
2018-11-12T03:26:24.946Z,782.92
2018-11-12T03:28:53.282Z,785.90
2018-11-12T03:31:21.595Z,781.40
2018-11-12T03:33:49.962Z,783.60
2018-11-12T03:36:18.279Z,783.92
2018-11-12T03:38:46.539Z,782.65
2018-11-12T03:41:14.823Z,784.00
2018-11-12T03:43:43.192Z,784.05
2018-11-12T03:46:11.503Z,783.15
2018-11-12T03:48:39.871Z,785.27
2018-11-12T03:51:08.158Z,787.05
2018-11-12T03:53:36.445Z,784.42
2018-11-12T03:56:05.118Z,778.58
2018-11-12T03:58:33.397Z,788.85
2018-11-12T04:01:01.754Z,787.20
2018-11-12T04:03:30.049Z,785.35
2018-11-12T04:05:58.341Z,777.97
2018-11-12T04:08:26.615Z,776.98
2018-11-12T04:10:54.901Z,773.05
2018-11-12T04:13:23.182Z,778.05
2018-11-12T04:15:51.465Z,774.80
2018-11-12T04:18:19.754Z,776.42
2018-11-12T04:20:48.082Z,778.12
2018-11-12T04:23:16.363Z,775.17
2018-11-12T04:25:44.652Z,776.00
2018-11-12T04:28:12.962Z,794.02
2018-11-12T04:30:41.271Z,786.67
2018-11-12T04:33:09.530Z,776.50
2018-11-12T04:35:37.839Z,783.05
2018-11-12T04:38:06.097Z,783.90
2018-11-12T04:40:34.410Z,773.30
2018-11-12T04:43:02.687Z,776.40
2018-11-12T04:45:31.002Z,779.20
2018-11-12T04:47:59.267Z,778.27
2018-11-12T04:50:28.432Z,778.55
2018-11-12T04:52:56.739Z,782.47
2018-11-12T04:55:25.655Z,779.60
2018-11-12T04:57:53.827Z,784.08
2018-11-12T05:00:24.563Z,783.65
2018-11-12T05:02:53.063Z,781.30
2018-11-12T05:05:22.563Z,774.85
2018-11-12T05:07:50.832Z,782.42
2018-11-12T05:10:20.468Z,791.83
2018-11-12T05:12:49.243Z,788.98
2018-11-12T05:15:18.775Z,782.92
2018-11-12T05:17:47.044Z,790.05
2018-11-12T05:20:19.512Z,782.00
2018-11-12T05:22:47.759Z,782.88
2018-11-12T05:25:16.086Z,787.53
2018-11-12T05:27:44.393Z,786.88
2018-11-12T05:30:16.702Z,783.83
2018-11-12T05:32:44.975Z,791.57
2018-11-12T05:35:14.518Z,785.25
2018-11-12T05:37:43.037Z,783.55
2018-11-12T05:40:14.391Z,784.50
2018-11-12T05:42:43.046Z,783.90
2018-11-12T05:45:11.700Z,785.67
2018-11-12T05:47:40.086Z,786.10
2018-11-12T05:50:12.593Z,786.10
2018-11-12T05:52:41.734Z,789.30
2018-11-12T05:55:11.164Z,786.23
2018-11-12T05:57:40.282Z,789.30
2018-11-12T06:00:09.899Z,787.85
2018-11-12T06:02:38.550Z,785.00
2018-11-12T06:05:07.686Z,791.20
2018-11-12T06:07:36.166Z,789.42
2018-11-12T06:10:06.318Z,799.15
2018-11-12T06:12:34.627Z,804.45
2018-11-12T06:15:02.930Z,803.58
2018-11-12T06:17:31.234Z,806.45
2018-11-12T06:19:59.510Z,808.45
2018-11-12T06:22:27.869Z,802.82
2018-11-12T06:24:56.131Z,800.00
2018-11-12T06:27:24.435Z,796.17
2018-11-12T06:29:52.733Z,800.05
2018-11-12T06:32:21.039Z,794.55
2018-11-12T06:34:49.888Z,791.88
2018-11-12T06:37:18.206Z,793.55
2018-11-12T06:39:46.462Z,793.60
2018-11-12T06:42:14.769Z,800.13
2018-11-12T06:44:43.058Z,796.42
2018-11-12T06:47:11.382Z,806.00
2018-11-12T06:49:39.660Z,801.35
2018-11-12T06:52:07.980Z,813.05
2018-11-12T06:54:36.250Z,811.97
2018-11-12T06:57:04.670Z,806.40
2018-11-12T06:59:32.967Z,809.70
2018-11-12T07:02:01.279Z,822.08
2018-11-12T07:04:29.549Z,807.30
2018-11-12T07:06:57.916Z,811.08
2018-11-12T07:09:26.156Z,814.70
2018-11-12T07:11:54.451Z,824.70
2018-11-12T07:14:22.721Z,818.40
2018-11-12T07:16:51.011Z,816.47
2018-11-12T07:19:19.310Z,820.45
2018-11-12T07:21:47.632Z,816.40
2018-11-12T07:24:16.164Z,819.80
2018-11-12T07:26:44.482Z,819.92
2018-11-12T07:29:12.764Z,822.63
2018-11-12T07:31:41.156Z,821.63
2018-11-12T07:34:09.551Z,828.58
2018-11-12T07:36:38.718Z,825.60
2018-11-12T07:39:08.844Z,817.15
2018-11-12T07:41:37.134Z,820.60
2018-11-12T07:44:05.714Z,831.50
2018-11-12T07:46:34.041Z,828.58
2018-11-12T07:49:02.327Z,836.20
2018-11-12T07:51:30.726Z,862.67
2018-11-12T07:53:58.902Z,846.20
2018-11-12T07:56:27.264Z,870.10
2018-11-12T07:58:55.511Z,1090.03
2018-11-12T08:01:23.820Z,1053.70
2018-11-12T08:03:52.193Z,1006.97
2018-11-12T08:06:20.504Z,1039.38
2018-11-12T08:08:48.809Z,987.30
2018-11-12T08:11:17.107Z,910.00
2018-11-12T08:13:45.394Z,887.42
2018-11-12T08:16:13.670Z,862.60
2018-11-12T08:18:42.113Z,878.17
2018-11-12T08:21:10.335Z,872.63
2018-11-12T08:23:38.614Z,867.07
2018-11-12T08:26:07.002Z,890.77
2018-11-12T08:28:35.307Z,882.98
2018-11-12T08:31:03.611Z,888.75
2018-11-12T08:33:31.915Z,888.30
2018-11-12T08:36:00.209Z,871.97
2018-11-12T08:38:28.506Z,885.15
2018-11-12T08:40:56.799Z,918.90
2018-11-12T08:43:25.103Z,918.40
2018-11-12T08:45:53.411Z,914.45
2018-11-12T08:48:21.785Z,920.40
2018-11-12T08:50:50.028Z,930.30
2018-11-12T08:53:18.350Z,934.13
2018-11-12T08:55:46.718Z,882.38
2018-11-12T08:58:15.627Z,931.38
2018-11-12T09:00:43.289Z,927.65
2018-11-12T09:03:11.567Z,924.40
2018-11-12T09:05:39.836Z,941.68
2018-11-12T09:08:08.138Z,931.27
2018-11-12T09:10:36.438Z,937.05
2018-11-12T09:13:04.747Z,923.75
2018-11-12T09:15:33.075Z,927.82
2018-11-12T09:18:01.878Z,901.75
2018-11-12T09:20:30.335Z,879.75
2018-11-12T09:22:58.665Z,939.38
2018-11-12T09:25:27.854Z,937.25
2018-11-12T09:27:56.176Z,949.00
2018-11-12T09:30:25.730Z,940.20
2018-11-12T09:32:54.018Z,955.87
2018-11-12T09:35:23.655Z,946.30
2018-11-12T09:37:52.891Z,962.03
2018-11-12T09:40:23.462Z,956.85
2018-11-12T09:42:51.983Z,964.43
2018-11-12T09:45:20.286Z,936.50
2018-11-12T09:47:48.644Z,959.92
2018-11-12T09:50:18.090Z,985.97
2018-11-12T09:52:47.643Z,984.07
2018-11-12T09:55:16.814Z,999.13
2018-11-12T09:57:46.575Z,991.23
2018-11-12T10:00:16.494Z,999.32
2018-11-12T10:02:46.645Z,1014.17
2018-11-12T10:05:16.243Z,1014.83
2018-11-12T10:07:45.702Z,1017.77
2018-11-12T10:10:30.505Z,1046.45
2018-11-12T10:12:58.430Z,1045.78
2018-11-12T10:15:27.880Z,1056.20
2018-11-12T10:17:54.949Z,1069.47
2018-11-12T10:20:21.507Z,1075.43
2018-11-12T10:22:49.758Z,1086.53
2018-11-12T10:25:19.041Z,1098.90
2018-11-12T10:27:47.345Z,1104.27
2018-11-12T10:30:15.636Z,1114.90
2018-11-12T10:32:43.914Z,1124.13
2018-11-12T10:35:12.203Z,1087.10
2018-11-12T10:37:41.396Z,1116.03
2018-11-12T10:40:12.307Z,1136.92
2018-11-12T10:42:40.685Z,1124.45
2018-11-12T10:45:09.151Z,1118.23
2018-11-12T10:47:37.450Z,1141.00
2018-11-12T10:50:06.110Z,1086.45
2018-11-12T10:52:34.422Z,1132.03
2018-11-12T10:55:05.629Z,1113.55
2018-11-12T10:57:31.213Z,1117.38
2018-11-12T10:59:59.527Z,1118.90
2018-11-12T11:02:32.687Z,1101.80
2018-11-12T11:05:01.626Z,1104.40
2018-11-12T11:07:29.919Z,1112.55
2018-11-12T11:09:58.414Z,1113.08
2018-11-12T11:12:26.706Z,1109.05
2018-11-12T11:14:55.045Z,1112.65
2018-11-12T11:17:23.766Z,1110.92
2018-11-12T11:19:52.070Z,1084.40
2018-11-12T11:22:20.406Z,1111.78
2018-11-12T11:24:48.738Z,1101.28
2018-11-12T11:27:17.035Z,1086.95
2018-11-12T11:29:45.338Z,1079.75
2018-11-12T11:32:13.669Z,1074.85
2018-11-12T11:34:41.994Z,1042.80
2018-11-12T11:37:10.348Z,1028.75
2018-11-12T11:39:38.642Z,1038.50
2018-11-12T11:42:06.966Z,1021.17
2018-11-12T11:44:35.294Z,1012.40
2018-11-12T11:47:03.599Z,1003.65
2018-11-12T11:49:31.913Z,996.20
2018-11-12T11:52:00.196Z,1003.95
2018-11-12T11:54:28.932Z,986.90
2018-11-12T11:56:57.222Z,1007.05
2018-11-12T11:59:25.698Z,1001.75
2018-11-12T12:01:54.000Z,996.85
2018-11-12T12:04:22.307Z,992.80
2018-11-12T12:06:50.602Z,982.80
2018-11-12T12:09:18.913Z,972.95
2018-11-12T12:11:47.190Z,987.50
2018-11-12T12:14:15.659Z,986.85
2018-11-12T12:16:44.066Z,985.28
2018-11-12T12:19:12.447Z,978.22
2018-11-12T12:21:40.680Z,971.92
2018-11-12T12:24:09.053Z,974.15
2018-11-12T12:26:37.350Z,982.07
2018-11-12T12:29:05.839Z,980.03
2018-11-12T12:31:34.170Z,926.67
2018-11-12T12:34:02.562Z,947.33
2018-11-12T12:36:30.914Z,962.15
2018-11-12T12:38:59.202Z,952.28
2018-11-12T12:41:27.500Z,960.40
2018-11-12T12:43:55.791Z,956.47
2018-11-12T12:46:24.106Z,940.25
2018-11-12T12:48:52.370Z,939.93
2018-11-12T12:51:20.699Z,941.45
2018-11-12T12:53:48.990Z,956.38
2018-11-12T12:56:17.354Z,959.02
2018-11-12T12:58:45.598Z,955.55
2018-11-12T13:01:13.892Z,948.75
2018-11-12T13:03:42.184Z,962.05
2018-11-12T13:06:10.479Z,959.15
2018-11-12T13:08:38.772Z,1002.22
2018-11-12T13:11:07.081Z,1008.42
2018-11-12T13:13:35.368Z,979.87
2018-11-12T13:16:05.735Z,1000.70
2018-11-12T13:18:34.014Z,1009.43
2018-11-12T13:21:02.395Z,1005.10
2018-11-12T13:23:30.614Z,1013.05
2018-11-12T13:25:58.934Z,1003.92
2018-11-12T13:28:27.242Z,989.85
2018-11-12T13:30:55.546Z,998.98
2018-11-12T13:33:23.830Z,991.95
2018-11-12T13:35:52.142Z,981.45
2018-11-12T13:38:20.440Z,1006.97
2018-11-12T13:40:48.755Z,989.52
2018-11-12T13:43:17.050Z,1011.95
2018-11-12T13:45:45.374Z,1020.55
2018-11-12T13:48:13.739Z,1015.00
2018-11-12T13:50:42.002Z,1028.42
2018-11-12T13:53:10.382Z,1024.08
2018-11-12T13:55:38.592Z,1029.03
2018-11-12T13:58:06.910Z,1033.00
2018-11-12T14:00:35.218Z,1009.43
2018-11-12T14:03:03.566Z,1021.05
2018-11-12T14:05:31.846Z,1017.40
2018-11-12T14:08:00.169Z,1021.37
2018-11-12T14:10:29.530Z,1006.58
2018-11-12T14:12:58.454Z,1003.92
2018-11-12T14:15:27.015Z,1000.35
2018-11-12T14:17:55.794Z,985.15
2018-11-12T14:20:24.953Z,987.20
2018-11-12T14:22:53.211Z,984.58
2018-11-12T14:25:22.530Z,980.78
2018-11-12T14:27:52.011Z,985.95
2018-11-12T14:30:21.871Z,989.07
2018-11-12T14:32:50.194Z,986.90
2018-11-12T14:35:18.472Z,990.70
2018-11-12T14:37:47.295Z,994.52
2018-11-12T14:40:16.684Z,997.63
2018-11-12T14:42:45.016Z,996.00
2018-11-12T14:45:14.855Z,1005.05
2018-11-12T14:47:43.626Z,989.60
2018-11-12T14:50:11.915Z,1011.05
2018-11-12T14:52:40.231Z,1014.58
2018-11-12T14:55:09.753Z,1018.00
2018-11-12T14:57:38.003Z,1016.80
2018-11-12T15:00:12.178Z,986.65
2018-11-12T15:02:40.471Z,998.57
2018-11-12T15:05:08.767Z,1014.63
2018-11-12T15:07:37.054Z,1027.40
2018-11-12T15:10:07.204Z,1007.37
2018-11-12T15:12:35.529Z,999.93
2018-11-12T15:15:04.255Z,1000.42
2018-11-12T15:17:32.570Z,1009.70
2018-11-12T15:20:00.855Z,1010.68
2018-11-12T15:22:29.199Z,1007.80
2018-11-12T15:24:57.474Z,1026.80
2018-11-12T15:27:25.903Z,1019.10
2018-11-12T15:29:54.186Z,1007.13
2018-11-12T15:32:22.483Z,1011.47
2018-11-12T15:34:50.754Z,1002.83
2018-11-12T15:37:19.093Z,982.83
2018-11-12T15:39:47.351Z,987.85
2018-11-12T15:42:15.650Z,994.70
2018-11-12T15:44:43.971Z,994.67
2018-11-12T15:47:12.836Z,985.15
2018-11-12T15:49:41.471Z,988.13
2018-11-12T15:52:09.782Z,991.87
2018-11-12T15:54:38.067Z,981.00
2018-11-12T15:57:06.678Z,975.30
2018-11-12T15:59:34.960Z,966.25
2018-11-12T16:02:03.295Z,965.17
2018-11-12T16:04:31.599Z,971.92
2018-11-12T16:06:59.969Z,948.55
2018-11-12T16:09:28.288Z,958.05
2018-11-12T16:11:56.648Z,951.45
2018-11-12T16:14:24.923Z,951.52
2018-11-12T16:16:53.199Z,931.50
2018-11-12T16:19:21.589Z,950.95
2018-11-12T16:21:49.790Z,933.70
2018-11-12T16:24:18.110Z,933.95
2018-11-12T16:26:46.510Z,915.70
2018-11-12T16:29:14.714Z,917.50
2018-11-12T16:31:42.994Z,924.53
2018-11-12T16:34:11.323Z,909.25
2018-11-12T16:36:39.607Z,885.75
2018-11-12T16:39:09.710Z,893.62
2018-11-12T16:41:38.634Z,899.30
2018-11-12T16:44:06.976Z,895.57
2018-11-12T16:46:35.311Z,860.90
2018-11-12T16:49:03.650Z,870.50
2018-11-12T16:51:31.954Z,877.52
2018-11-12T16:54:00.242Z,856.47
2018-11-12T16:56:28.551Z,860.60
2018-11-12T16:58:56.858Z,868.00
2018-11-12T17:01:25.184Z,855.40
2018-11-12T17:03:53.484Z,836.48
2018-11-12T17:06:21.771Z,834.55
2018-11-12T17:08:50.063Z,832.38
2018-11-12T17:11:18.344Z,851.67
2018-11-12T17:13:46.655Z,858.90
2018-11-12T17:16:14.941Z,827.10
2018-11-12T17:18:43.254Z,829.05
2018-11-12T17:21:11.522Z,824.17
2018-11-12T17:23:39.802Z,826.17
2018-11-12T17:26:08.093Z,826.17
2018-11-12T17:28:36.430Z,831.90
2018-11-12T17:31:04.795Z,823.40
2018-11-12T17:33:33.090Z,825.75
2018-11-12T17:36:01.348Z,821.50
2018-11-12T17:38:29.650Z,840.08
2018-11-12T17:40:57.926Z,848.80
2018-11-12T17:43:26.296Z,824.15
2018-11-12T17:45:54.548Z,838.05
2018-11-12T17:48:22.840Z,833.15
2018-11-12T17:50:51.142Z,846.60
2018-11-12T17:53:19.474Z,844.80
2018-11-12T17:55:47.750Z,848.58
2018-11-12T17:58:16.166Z,844.07
2018-11-12T18:00:44.439Z,838.12
2018-11-12T18:03:12.761Z,832.87
2018-11-12T18:05:41.041Z,839.52
2018-11-12T18:08:09.510Z,837.40
2018-11-12T18:10:37.811Z,836.08
2018-11-12T18:13:06.102Z,826.05
2018-11-12T18:15:34.474Z,826.42
2018-11-12T18:18:02.742Z,825.92
2018-11-12T18:20:31.030Z,824.75
2018-11-12T18:22:59.354Z,824.55
2018-11-12T18:25:27.646Z,825.70
2018-11-12T18:27:56.426Z,830.98
2018-11-12T18:33:02.477Z,831.78
2018-11-12T18:35:30.802Z,836.60
2018-11-12T18:37:59.146Z,835.43
2018-11-12T18:40:29.662Z,827.20
2018-11-12T18:42:58.023Z,826.48
2018-11-12T18:45:27.237Z,825.40
2018-11-12T18:47:55.898Z,833.33
2018-11-12T18:50:26.635Z,822.78
2018-11-12T18:52:54.896Z,818.65
2018-11-12T18:55:23.210Z,815.10
2018-11-12T18:57:52.039Z,817.88
2018-11-12T19:00:21.666Z,824.40
2018-11-12T19:02:50.381Z,818.65
2018-11-12T19:05:20.902Z,815.08
2018-11-12T19:07:52.222Z,815.67
2018-11-12T19:10:24.964Z,824.65
2018-11-12T19:12:53.446Z,819.88
2018-11-12T19:15:23.304Z,816.10
2018-11-12T19:17:53.882Z,807.15
2018-11-12T19:20:22.166Z,816.60
2018-11-12T19:22:50.451Z,821.20
2018-11-12T19:25:18.845Z,806.15
2018-11-12T19:27:47.134Z,816.53
2018-11-12T19:30:18.705Z,808.90
2018-11-12T19:32:47.128Z,830.10
2018-11-12T19:35:16.916Z,814.27
2018-11-12T19:37:45.204Z,816.65
2018-11-12T19:40:22.177Z,809.75
2018-11-12T19:42:51.486Z,815.42
2018-11-12T19:45:19.797Z,813.55
2018-11-12T19:47:49.384Z,806.95
2018-11-12T19:50:18.839Z,808.35
2018-11-12T19:52:48.134Z,818.62
2018-11-12T19:55:16.589Z,810.70
2018-11-12T19:57:45.410Z,821.83
2018-11-12T20:00:15.326Z,807.32
2018-11-12T20:02:44.742Z,802.22
2018-11-12T20:05:13.020Z,810.47
2018-11-12T20:07:41.754Z,807.92
2018-11-12T20:10:12.715Z,808.20
2018-11-12T20:12:41.188Z,816.42
2018-11-12T20:15:10.394Z,811.45
2018-11-12T20:17:38.907Z,817.20
2018-11-12T20:20:10.962Z,808.98
2018-11-12T20:22:39.396Z,811.00
2018-11-12T20:25:08.273Z,821.37
2018-11-12T20:27:36.579Z,815.00
2018-11-12T20:30:05.954Z,824.47
2018-11-12T20:32:34.334Z,820.60
2018-11-12T20:35:02.590Z,817.40
2018-11-12T20:37:30.860Z,822.25
2018-11-12T20:39:59.159Z,828.10
2018-11-12T20:42:27.464Z,814.65
2018-11-12T20:44:55.778Z,817.15
2018-11-12T20:47:24.062Z,825.30
2018-11-12T20:49:52.437Z,830.05
2018-11-12T20:52:20.718Z,824.85
2018-11-12T20:54:49.036Z,824.35
2018-11-12T20:57:18.149Z,825.40
2018-11-12T20:59:46.446Z,821.50
2018-11-12T21:02:14.711Z,822.55
2018-11-12T21:04:43.014Z,829.42
2018-11-12T21:07:11.286Z,828.45
2018-11-12T21:09:39.655Z,847.20
2018-11-12T21:12:07.875Z,821.20
2018-11-12T21:14:36.189Z,828.12
2018-11-12T21:17:04.751Z,830.48
2018-11-12T21:19:33.099Z,817.92
2018-11-12T21:22:01.354Z,831.60
2018-11-12T21:24:29.642Z,834.30
2018-11-12T21:26:57.931Z,836.05
2018-11-12T21:29:26.239Z,842.33
2018-11-12T21:31:54.505Z,825.95
2018-11-12T21:34:22.803Z,835.70
2018-11-12T21:36:51.138Z,827.90
2018-11-12T21:39:19.421Z,827.52
2018-11-12T21:41:47.754Z,824.00
2018-11-12T21:44:16.052Z,832.47
2018-11-12T21:46:44.337Z,831.53
2018-11-12T21:49:12.662Z,828.50
2018-11-12T21:51:40.934Z,828.88
2018-11-12T21:54:09.257Z,827.88
2018-11-12T21:56:37.562Z,827.73
2018-11-12T21:59:06.121Z,824.53
2018-11-12T22:01:34.411Z,831.30
2018-11-12T22:04:02.766Z,835.70
2018-11-12T22:06:31.031Z,833.95
2018-11-12T22:08:59.295Z,844.52
2018-11-12T22:11:27.578Z,834.77
2018-11-12T22:13:55.850Z,832.85
2018-11-12T22:16:24.206Z,825.55
2018-11-12T22:18:52.460Z,844.17
2018-11-12T22:21:20.858Z,860.75
2018-11-12T22:23:49.132Z,830.55
2018-11-12T22:26:17.424Z,830.00
2018-11-12T22:28:45.707Z,831.15
2018-11-12T22:31:14.038Z,840.02
2018-11-12T22:33:42.326Z,838.98
2018-11-12T22:36:10.612Z,828.52
2018-11-12T22:38:38.874Z,829.97
2018-11-12T22:41:07.158Z,832.35
2018-11-12T22:43:35.493Z,824.55
2018-11-12T22:46:03.792Z,825.33
2018-11-12T22:48:32.065Z,825.88
2018-11-12T22:51:00.360Z,835.40
2018-11-12T22:53:28.623Z,829.97
2018-11-12T22:55:56.915Z,830.25
2018-11-12T22:58:25.237Z,833.92
2018-11-12T23:00:53.546Z,827.88
2018-11-12T23:03:21.832Z,828.20
2018-11-12T23:05:54.477Z,828.35
2018-11-12T23:08:22.750Z,829.00
2018-11-12T23:10:51.042Z,829.23
2018-11-12T23:13:19.302Z,824.23
2018-11-12T23:15:47.590Z,830.93
2018-11-12T23:18:15.878Z,829.70
2018-11-12T23:20:44.206Z,830.87
2018-11-12T23:23:12.502Z,830.15
2018-11-12T23:25:40.799Z,832.25
2018-11-12T23:28:09.082Z,823.25
2018-11-12T23:30:37.390Z,825.10
2018-11-12T23:33:05.682Z,822.52
2018-11-12T23:35:33.974Z,823.75
2018-11-12T23:38:02.246Z,824.30
2018-11-12T23:40:30.546Z,825.15
2018-11-12T23:42:59.018Z,829.00
2018-11-12T23:45:27.326Z,823.30
2018-11-12T23:47:55.628Z,828.00
2018-11-12T23:50:23.937Z,823.85
2018-11-12T23:52:52.927Z,819.15
2018-11-12T23:55:21.551Z,822.87
2018-11-12T23:57:50.331Z,821.42
